Portada
METAR-TAF:

METAR-TAF

Aeroports :

Desert Rock Airport

Mercury, Nevada, Estats Units d'Amèrica

latitud: 36-37-14N, longitud: 116-01-40W, altitud: 1007 m

Observació

L'informe es va fer fa 35 minuts, a les 15:53 UTC
Vent 4 kt del Nord
Temperatura 6°C
Humitat 39%
Pressió 1032 hPa
Visibilitat: 16.1 km
Cel clar

METAR: KDRA 261553Z AUTO 01004KT 10SM CLR 06/M07 A3048 RMK AO2 SLP310 T00611072

Hora: 08:28 (16:28 UTC)


TAF: manca

Observacions i pronòstics meteorològics de més de 4000 aeroports (METAR i TAF).

Les estacions disponibles són els punts grocs i vermells al mapa.

Posi el ratolí al punt desitjat per veure el nom de l'estació.

Feu clic per veure les observacions i els pronòstics meteorològics.

Per canviar el mapa: feu clic els botons verds amb una creu de color negre per apropar; al botó verd amb un guió per allunyar la imatge; o en les fletxes verdes per a mapes adjacents.


METAR-TAF: